Flight Track Log - Related Links

Times and Time Zones

All times are in EDT time to prevent confusion due to time zone crossing. See the SKW5631 flight status page for this flight to view local times or setup timezone preferences in your user account.

Time Position Orientation Groundspeed Altitude Reporting Facility
EDT Latitude Longitude Course Direction KTS MPH feet Rate Location/Type
Sat 10:19:58 PM 37.6319 -122.3592 North 172 198 800  Level Oakland Center
Sat 10:20:59 PM 37.6706 -122.3086 46° Northeast 208 239 3,600 2,459 Climbing Oakland Center
Sat 10:22:00 PM 37.7225 -122.2797 24° Northeast 219 252 5,800 2,380 Climbing Oakland Center
Sat 10:23:00 PM 37.8081 -122.2744 North 247 284 8,400 2,529 Climbing Oakland Center
Sat 10:24:00 PM 37.7721 -122.3500 North  Level FlightAware Approximate
Sat 10:24:01 PM 37.8822 -122.2744 360° North 263 303 10,900  Level Oakland Center
Sat 10:25:00 PM 37.8909 -122.3500 North  Level FlightAware Approximate
Sat 10:25:02 PM 37.9633 -122.2433 17° North 306 352 12,500  Level Oakland Center
Sat 10:26:03 PM 38.0464 -122.2067 19° North 316 364 14,600 2,016 Climbing Oakland Center
Sat 10:27:04 PM 38.1333 -122.1703 18° North 327 376 16,600 1,869 Climbing Oakland Center
Sat 10:28:05 PM 38.2247 -122.1314 18° North 344 396 18,400 1,770 Climbing Oakland Center
Sat 10:29:06 PM 38.3167 -122.0922 18° North 354 407 20,200 1,636 Climbing Oakland Center
Sat 10:30:06 PM 38.4119 -122.0517 18° North 361 415 21,700 1,587 Climbing Oakland Center
Sat 10:31:07 PM 38.5097 -122.0097 19° North 371 427 23,400 1,475 Climbing Oakland Center
Sat 10:32:08 PM 38.6089 -121.9667 19° North 377 434 24,700 1,328 Climbing Oakland Center
Sat 10:33:09 PM 38.7203 -121.9192 18° North 384 442 26,100 1,279 Climbing Oakland Center
Sat 10:34:10 PM 38.8250 -121.8719 19° North 396 456 27,300 1,082 Climbing Oakland Center
Sat 10:35:11 PM 38.9314 -121.8253 19° North 400 460 28,300 992 Climbing Oakland Center
Sat 10:36:11 PM 39.0397 -121.7775 19° North 408 470 29,300 992 Climbing Oakland Center
Sat 10:37:12 PM 39.1494 -121.7286 19° North 413 475 30,300 836 Climbing Oakland Center
Sat 10:38:13 PM 39.2603 -121.6806 19° North 417 480 31,000 836 Climbing Oakland Center
Sat 10:39:14 PM 39.3731 -121.6303 19° North 424 488 32,000 1,082 Climbing Oakland Center
Sat 10:40:15 PM 39.4939 -121.5736 20° North 422 486 33,200 984 Climbing Oakland Center
Sat 10:41:16 PM 39.6025 -121.5256 19° North 416 479 34,000 393 Climbing Oakland Center
Sat 10:42:17 PM 39.7136 -121.4753 19° North 423 487 34,000  Level Oakland Center
Sat 10:43:17 PM 39.8267 -121.4247 19° North 432 497 34,000  Level Oakland Center
Sat 10:44:18 PM 39.9381 -121.3744 19° North 428 493 34,000  Level Oakland Center
Sat 10:45:19 PM 40.0500 -121.3247 19° North 428 493 34,000  Level Oakland Center
Sat 10:46:20 PM 40.1606 -121.2725 20° North 423 487 34,000  Level Oakland Center
Sat 10:47:21 PM 40.2725 -121.2236 18° North 423 487 34,000  Level Oakland Center
Sat 10:48:22 PM 40.4056 -121.1617 20° North 424 488 34,000  Level Oakland Center
Sat 10:49:22 PM 40.5158 -121.1100 20° North 422 486 34,000  Level Oakland Center
Sat 10:50:23 PM 40.6136 -121.0667 19° North 424 488 34,000  Level Oakland Center
Sat 10:51:01 PM 40.6814 -121.0353 19° North 424 488 34,000  Level Seattle Center
Sat 10:52:02 PM 40.7919 -120.9839 19° North 423 487 34,000  Level Seattle Center
Sat 10:53:02 PM 40.9022 -120.9325 19° North 421 484 34,000  Level Seattle Center
Sat 10:54:03 PM 41.0342 -120.8706 19° North 420 483 34,000  Level Seattle Center
Sat 10:55:04 PM 41.1436 -120.8194 19° North 418 481 34,000  Level Seattle Center
Sat 10:56:04 PM 41.2542 -120.7675 19° North 420 483 34,000  Level Seattle Center
Sat 10:57:05 PM 41.3644 -120.7156 19° North 422 486 34,000  Level Seattle Center
Sat 10:58:06 PM 41.4725 -120.6633 20° North 417 480 34,000  Level Seattle Center
Sat 10:59:06 PM 41.5828 -120.6111 20° North 419 482 34,000  Level Seattle Center
Sat 11:00:07 PM 41.6914 -120.5583 20° North 418 481 34,000  Level Seattle Center
Sat 11:01:08 PM 41.7981 -120.5083 19° North 411 473 34,000  Level Seattle Center
Sat 11:02:08 PM 41.9075 -120.4539 20° North 417 480 34,000  Level Seattle Center
Sat 11:03:09 PM 42.0175 -120.4014 20° North 419 482 34,000  Level Seattle Center
Sat 11:04:09 PM 42.1267 -120.3469 20° North 420 483 34,000  Level Seattle Center
Sat 11:05:10 PM 42.2375 -120.2947 19° North 422 486 34,000  Level Seattle Center
Sat 11:06:11 PM 42.3489 -120.2397 20° North 425 489 34,000  Level Seattle Center
Sat 11:07:11 PM 42.4578 -120.1858 20° North 421 484 34,000  Level Seattle Center
Sat 11:08:12 PM 42.5653 -120.1317 20° North 415 478 34,000  Level Seattle Center
Sat 11:09:12 PM 42.6756 -120.0767 20° North 420 483 34,000  Level Seattle Center
Sat 11:10:13 PM 42.7850 -120.0236 20° North 419 482 34,000  Level Seattle Center
Sat 11:11:14 PM 42.8942 -119.9683 20° North 421 484 34,000  Level Seattle Center
Sat 11:12:14 PM 43.0242 -119.9028 20° North 418 481 34,000  Level Seattle Center
Sat 11:13:15 PM 43.1328 -119.8489 20° North 416 479 34,000  Level Seattle Center
Sat 11:14:16 PM 43.2414 -119.7917 21° North 418 481 34,000  Level Seattle Center
Sat 11:15:16 PM 43.3494 -119.7378 20° North 420 483 34,000  Level Seattle Center
Sat 11:16:17 PM 43.4567 -119.6842 20° North 415 478 34,000  Level Seattle Center
Sat 11:17:17 PM 43.5656 -119.6278 21° North 418 481 34,000  Level Seattle Center
Sat 11:18:18 PM 43.6733 -119.5731 20° North 416 479 34,000  Level Seattle Center
Sat 11:19:18 PM 43.7831 -119.5169 20° North 420 483 34,000  Level Seattle Center
Sat 11:20:19 PM 43.8919 -119.4600 21° North 420 483 34,000  Level Seattle Center
Sat 11:21:20 PM 44.0008 -119.4044 20° North 418 481 34,000  Level Seattle Center
Sat 11:22:20 PM 44.1092 -119.3475 21° North 418 481 34,000  Level Seattle Center
Sat 11:23:21 PM 44.2189 -119.2906 20° North 420 483 34,000  Level Seattle Center
Sat 11:24:21 PM 44.3278 -119.2331 21° North 420 483 34,000  Level Seattle Center
Sat 11:25:22 PM 44.4372 -119.1758 20° North 422 486 34,000  Level Seattle Center
Sat 11:26:22 PM 44.5464 -119.1178 21° North 422 486 34,000  Level Seattle Center
Sat 11:27:23 PM 44.6783 -119.0492 20° North 424 488 34,000  Level Seattle Center
Sat 11:28:23 PM 44.7872 -118.9903 21° North 422 486 34,000  Level Seattle Center
Sat 11:29:24 PM 44.8975 -118.9306 21° North 426 490 34,000  Level Seattle Center
Sat 11:30:24 PM 45.0103 -118.8722 20° North 430 495 34,000  Level Seattle Center
Sat 11:31:25 PM 45.1203 -118.8131 21° North 428 493 34,000  Level Seattle Center
Sat 11:32:25 PM 45.2311 -118.7519 21° North 429 494 34,000  Level Seattle Center
Sat 11:33:26 PM 45.3425 -118.6917 21° North 431 496 34,000  Level Seattle Center
Sat 11:34:26 PM 45.4536 -118.6303 21° North 430 495 34,000  Level Seattle Center
Sat 11:35:27 PM 45.5653 -118.5689 21° North 433 498 34,000  Level Seattle Center
Sat 11:36:27 PM 45.6744 -118.5083 21° North 426 490 34,000  Level Seattle Center
Sat 11:37:28 PM 45.7814 -118.4481 21° North 432 497 34,000  Level Seattle Center
Sat 11:38:28 PM 45.8922 -118.3881 21° North 429 494 34,000  Level Seattle Center
Sat 11:39:29 PM 46.0031 -118.3256 21° North 430 495 34,000  Level Seattle Center
Sat 11:40:29 PM 46.1136 -118.2628 21° North 429 494 34,000  Level Seattle Center
Sat 11:41:30 PM 46.2236 -118.2006 21° North 429 494 34,000  Level Seattle Center
Sat 11:42:30 PM 46.3317 -118.1400 21° North 421 484 34,000  Level Seattle Center
Sat 11:43:31 PM 46.4625 -118.0625 22° Northeast 425 489 34,000  Level Seattle Center
Sat 11:44:31 PM 46.5694 -118.0039 21° North 417 480 34,000  Level Seattle Center
Sat 11:45:32 PM 46.6772 -117.9408 22° Northeast 418 481 34,000  Level Seattle Center
Sat 11:46:32 PM 46.7844 -117.8792 21° North 415 478 34,000  Level Seattle Center
Sat 11:47:33 PM 46.8928 -117.8147 22° Northeast 421 484 34,000  Level Seattle Center
Sat 11:48:33 PM 47.0008 -117.7533 21° North 420 483 34,000 -198 Level Seattle Center
Sat 11:49:34 PM 47.1094 -117.6889 22° Northeast 421 484 33,600 -446 Descending Seattle Center
Sat 11:50:34 PM 47.2231 -117.6236 21° North 437 503 33,100 -347 Descending Seattle Center
Sat 11:51:35 PM 47.3347 -117.5564 22° Northeast 437 503 32,900 -50 Descending Seattle Center
Sat 11:52:35 PM 47.4464 -117.4903 22° Northeast 434 499 33,000 50 Climbing Seattle Center
Sat 11:53:36 PM 47.5567 -117.4250 22° Northeast 426 490 33,000  Level Seattle Center
Sat 11:54:36 PM 47.6678 -117.3586 22° Northeast 426 490 33,000  Level Seattle Center
Sat 11:55:37 PM 47.7767 -117.2925 22° Northeast 413 475 33,000  Level Seattle Center
Sat 11:56:37 PM 47.8858 -117.2261 22° Northeast 421 484 33,000  Level Seattle Center
Sat 11:57:38 PM 47.9944 -117.1617 22° Northeast 419 482 33,000  Level Seattle Center
Sat 11:58:38 PM 48.1014 -117.0947 23° Northeast 418 481 33,000  Level Seattle Center
Sat 11:59:39 PM 48.2111 -117.0294 22° Northeast 421 484 33,000  Level Seattle Center
Sun 12:00:39 AM 48.3206 -116.9608 23° Northeast 425 489 33,000  Level Seattle Center
Sun 12:01:39 AM 48.4292 -116.8950 22° Northeast 423 487 33,000  Level Seattle Center
Sun 12:02:28 AM 48.5000 -116.8167 36° Northeast 420 483 33,000  Level Vancouver Center
Sun 12:03:28 AM 48.6167 -116.7500 21° North 420 483 33,000  Level Vancouver Center
Sun 12:04:28 AM 48.7333 -116.6833 21° North 430 495 33,000  Level Vancouver Center
Sun 12:05:28 AM 48.8333 -116.6167 24° Northeast 420 483 33,000  Level Vancouver Center
Sun 12:06:28 AM 48.9333 -116.5333 29° Northeast 420 483 33,000  Level Vancouver Center
Sun 12:07:28 AM 49.0500 -116.4833 16° North 430 495 33,000  Level Vancouver Center
Sun 12:08:26 AM 49.1333 -116.4667 North 420 483 33,000  Level Edmonton Center
Sun 12:09:26 AM 49.2500 -116.4000 20° North 430 495 33,000  Level Edmonton Center
Sun 12:10:26 AM 49.3667 -116.3167 25° Northeast 430 495 33,000  Level Edmonton Center
Sun 12:11:26 AM 49.4667 -116.2333 28° Northeast 420 483 33,000  Level Edmonton Center
Sun 12:12:26 AM 49.5833 -116.1833 16° North 420 483 33,000  Level Edmonton Center
Sun 12:13:26 AM 49.6833 -116.1167 23° Northeast 430 495 33,000  Level Edmonton Center
Sun 12:14:26 AM 49.8167 -116.0333 22° Northeast 430 495 33,000  Level Edmonton Center
Sun 12:15:26 AM 49.9167 -115.9667 23° Northeast 430 495 33,000  Level Edmonton Center
Sun 12:16:26 AM 50.0333 -115.8833 25° Northeast 430 495 33,000  Level Edmonton Center
Sun 12:17:26 AM 50.1333 -115.8333 18° North 430 495 33,000  Level Edmonton Center
Sun 12:18:26 AM 50.2500 -115.7500 25° Northeast 440 506 33,000  Level Edmonton Center
Sun 12:19:26 AM 50.3667 -115.6667 24° Northeast 440 506 33,000  Level Edmonton Center
Sun 12:20:26 AM 50.4833 -115.6000 20° North 440 506 33,000  Level Edmonton Center
Sun 12:21:26 AM 50.6000 -115.5167 24° Northeast 440 506 33,000  Level Edmonton Center
Sun 12:22:26 AM 50.7000 -115.4333 28° Northeast 440 506 33,000  Level Edmonton Center
Sun 12:23:26 AM 50.8333 -115.3500 22° Northeast 440 506 33,000  Level Edmonton Center
Sun 12:24:26 AM 50.9333 -115.3000 17° North 440 506 33,000  Level Edmonton Center
Sun 12:25:26 AM 51.0500 -115.2167 24° Northeast 440 506 33,000  Level Edmonton Center
Sun 12:26:26 AM 51.1833 -115.1333 21° North 440 506 33,000  Level Edmonton Center
Sun 12:27:26 AM 51.2833 -115.0500 28° Northeast 440 506 33,000  Level Edmonton Center
Sun 12:28:26 AM 51.4000 -114.9667 24° Northeast 440 506 33,000  Level Edmonton Center
Sun 12:29:26 AM 51.5000 -114.8833 27° Northeast 440 506 33,000  Level Edmonton Center
Sun 12:30:26 AM 51.6167 -114.8000 24° Northeast 440 506 33,000  Level Edmonton Center
Sun 12:31:26 AM 51.7333 -114.7167 24° Northeast 440 506 33,000 -50 Level Edmonton Center
Sun 12:32:26 AM 51.8500 -114.6667 15° North 440 506 32,900 -600 Descending Edmonton Center
Sun 12:33:26 AM 51.9667 -114.5500 32° Northeast 450 518 31,800 -1,250 Descending Edmonton Center
Sun 12:34:26 AM 52.0667 -114.4333 36° Northeast 450 518 30,400 -1,750 Descending Edmonton Center
Sun 12:35:26 AM 52.1833 -114.3500 24° Northeast 440 506 28,300 -2,000 Descending Edmonton Center
Sun 12:36:26 AM 52.2833 -114.2333 36° Northeast 430 495 26,400 -2,000 Descending Edmonton Center
Sun 12:37:26 AM 52.3833 -114.1500 27° Northeast 420 483 24,300 -2,000 Descending Edmonton Center
Sun 12:38:26 AM 52.4833 -114.0500 31° Northeast 410 472 22,400 -2,100 Descending Edmonton Center
Sun 12:39:26 AM 52.5667 -113.9333 40° Northeast 400 460 20,100 -2,250 Descending Edmonton Center
Sun 12:40:26 AM 52.6667 -113.8500 27° Northeast 380 437 17,900 -2,350 Descending Edmonton Center
Sun 12:41:26 AM 52.7333 -113.7833 31° Northeast 350 403 15,400 -2,450 Descending Edmonton Center
Sun 12:42:26 AM 52.8333 -113.6833 31° Northeast 310 357 13,000 -2,300 Descending Edmonton Center
Sun 12:43:26 AM 52.8833 -113.6167 39° Northeast 280 322 10,800 -2,100 Descending Edmonton Center
Sun 12:44:26 AM 52.9500 -113.5667 24° Northeast 260 299 8,800 -1,800 Descending Edmonton Center
Sun 12:45:26 AM 53.0167 -113.5000 31° Northeast 250 288 7,200 -1,350 Descending Edmonton Center
Sun 12:46:26 AM 53.0667 -113.4500 31° Northeast 220 253 6,100 -1,000 Descending Edmonton Center
Sun 12:47:26 AM 53.1000 -113.4000 42° Northeast 160 184 5,200 -600 Descending Edmonton Center
Sun 12:48:26 AM 53.1500 -113.3833 11° North 120 138 4,900 -750 Descending Edmonton Center
Sun 12:49:26 AM 53.1667 -113.4500 293° West 160 184 3,700 -650 Descending Edmonton Center
Sun 12:50:26 AM 53.2000 -113.4833 329° Northwest 130 150 3,600 -100 Descending Edmonton Center

Login

Don't have an account? Register now (free) for customized features, flight alerts, and more!